Time;durP1;ratioP1;P1;durP2;ratioP2;P2;SDS_P1;SDS_P2;PMS_P1;PMS_P2;Temp;Humidity;BMP_temperature;BMP_pressure;BME280_temperature;BME280_humidity;BME280_pressure;Samples;Min_cycle;Max_cycle;Signal;HPM_P1;HPM_P2
2023/12/20 00:00:37;;;;;;;16.45;3.55;;;9.70;99.90;;;;;;5043034;28;20141;-79
2023/12/20 00:03:04;;;;;;;15.57;3.17;;;8.60;99.90;;;;;;5025323;28;20080;-76
2023/12/20 00:05:31;;;;;;;16.92;3.13;;;9.10;99.90;;;;;;5006876;28;20099;-80
2023/12/20 00:07:57;;;;;;;13.23;3.72;;;8.60;99.90;;;;;;5040452;28;20074;-82
2023/12/20 00:10:23;;;;;;;12.25;3.13;;;10.40;99.90;;;;;;5042743;28;20040;-78
2023/12/20 00:12:49;;;;;;;20.85;3.75;;;9.50;99.90;;;;;;5024546;28;20111;-80
2023/12/20 00:15:14;;;;;;;15.07;3.55;;;10.40;99.90;;;;;;5043071;28;20469;-75
2023/12/20 00:17:40;;;;;;;19.98;4.07;;;8.40;99.90;;;;;;5023971;28;20075;-78
2023/12/20 00:20:07;;;;;;;16.08;3.33;;;10.50;99.90;;;;;;5009261;28;20044;-80
2023/12/20 00:22:32;;;;;;;15.88;3.45;;;10.60;99.90;;;;;;5043015;28;20453;-80
2023/12/20 00:24:58;;;;;;;9.85;2.97;;;9.10;99.90;;;;;;5009285;28;20036;-77
2023/12/20 00:27:24;;;;;;;20.88;3.78;;;8.60;99.90;;;;;;5023438;28;20095;-78
2023/12/20 00:29:50;;;;;;;15.20;3.63;;;8.80;99.90;;;;;;5027797;28;20075;-78
2023/12/20 00:32:16;;;;;;;14.52;3.50;;;10.30;99.90;;;;;;4990763;28;20358;-81
2023/12/20 00:34:43;;;;;;;15.70;3.40;;;8.90;99.90;;;;;;5024567;28;20037;-77
2023/12/20 00:37:08;;;;;;;13.90;3.20;;;9.80;99.90;;;;;;5008618;28;20032;-77
2023/12/20 00:39:34;;;;;;;20.80;3.80;;;10.10;99.90;;;;;;5025203;28;20039;-77
2023/12/20 00:42:00;;;;;;;17.58;3.47;;;10.50;99.90;;;;;;5023703;28;20076;-81
2023/12/20 00:44:26;;;;;;;19.55;3.20;;;10.00;99.90;;;;;;5010707;28;20502;-78
2023/12/20 00:46:52;;;;;;;15.80;3.63;;;8.60;99.90;;;;;;5040864;28;20037;-80
2023/12/20 00:49:17;;;;;;;24.83;4.32;;;10.10;99.90;;;;;;5023635;28;20039;-77
2023/12/20 00:51:43;;;;;;;14.25;3.03;;;10.50;99.90;;;;;;5004071;28;20052;-78
2023/12/20 00:54:09;;;;;;;19.55;3.55;;;10.60;99.90;;;;;;5020710;28;20039;-78
2023/12/20 00:56:35;;;;;;;17.08;3.85;;;10.20;99.90;;;;;;4991619;28;20457;-79
2023/12/20 00:59:00;;;;;;;21.80;3.90;;;10.10;99.90;;;;;;5041553;28;20041;-80
2023/12/20 01:01:26;;;;;;;15.13;3.38;;;10.50;99.90;;;;;;5041312;28;20068;-78
2023/12/20 01:03:52;;;;;;;13.23;3.10;;;8.40;99.90;;;;;;5003686;28;20517;-77
2023/12/20 01:06:18;;;;;;;12.10;3.33;;;8.70;99.90;;;;;;5031809;28;20037;-78
2023/12/20 01:08:44;;;;;;;17.05;3.88;;;8.60;99.90;;;;;;5043230;28;20461;-78
2023/12/20 01:11:10;;;;;;;19.30;3.72;;;8.70;99.90;;;;;;5042532;28;20455;-79
2023/12/20 01:13:36;;;;;;;13.88;3.25;;;8.40;99.90;;;;;;5043310;28;20128;-78
2023/12/20 01:16:02;;;;;;;20.98;3.78;;;9.60;99.90;;;;;;5025962;28;21459;-78
2023/12/20 01:18:28;;;;;;;16.65;3.83;;;10.00;99.90;;;;;;5034340;28;20044;-79
2023/12/20 01:20:54;;;;;;;19.95;4.18;;;10.00;99.90;;;;;;5026644;28;20037;-82
2023/12/20 01:23:19;;;;;;;17.05;3.65;;;8.50;99.90;;;;;;5042466;28;20036;-81
2023/12/20 01:25:45;;;;;;;16.90;4.00;;;8.60;99.90;;;;;;5038300;28;20505;-80
2023/12/20 01:28:11;;;;;;;15.02;3.33;;;10.30;99.90;;;;;;5007710;28;21705;-81
2023/12/20 01:30:36;;;;;;;19.25;4.45;;;8.40;99.90;;;;;;5024607;28;20044;-77
2023/12/20 01:33:02;;;;;;;17.55;4.13;;;10.50;99.90;;;;;;5023188;28;20040;-79
2023/12/20 01:35:31;;;;;;;18.83;4.60;;;9.90;99.90;;;;;;5040656;28;20040;-79
2023/12/20 01:37:56;;;;;;;18.48;4.32;;;8.40;99.90;;;;;;5021597;28;20052;-80
2023/12/20 01:40:22;;;;;;;23.60;4.63;;;8.80;99.90;;;;;;5005161;28;20067;-77
2023/12/20 01:43:00;;;;;;;20.10;5.20;;;10.70;99.90;;;;;;5038978;28;20124;-80
2023/12/20 01:45:25;;;;;;;15.38;4.05;;;9.20;99.90;;;;;;5024294;28;20074;-78
2023/12/20 01:47:52;;;;;;;17.80;4.28;;;10.80;99.90;;;;;;5037265;28;20037;-76
2023/12/20 01:50:18;;;;;;;20.48;4.65;;;10.70;99.90;;;;;;5022854;28;20068;-81
2023/12/20 01:52:44;;;;;;;21.77;4.68;;;11.00;99.90;;;;;;4991903;28;20736;-79
2023/12/20 01:55:13;;;;;;;23.08;5.10;;;11.00;99.90;;;;;;4999223;28;20140;-76
2023/12/20 01:57:42;;;;;;;21.95;5.18;;;9.00;99.90;;;;;;5006294;28;20460;-76
2023/12/20 02:00:10;;;;;;;25.50;5.03;;;9.00;99.90;;;;;;5019895;28;20102;-79
2023/12/20 02:02:39;;;;;;;18.05;4.40;;;10.90;99.90;;;;;;5007709;28;20061;-78
2023/12/20 02:05:06;;;;;;;14.82;4.70;;;8.90;99.90;;;;;;5019499;28;20053;-79
2023/12/20 02:07:31;;;;;;;17.75;4.20;;;9.00;99.90;;;;;;5010654;28;20032;-76
2023/12/20 02:09:57;;;;;;;17.50;3.80;;;9.40;99.90;;;;;;5024198;28;20043;-79
2023/12/20 02:12:23;;;;;;;16.77;3.90;;;9.40;99.90;;;;;;5027706;28;20480;-79
2023/12/20 02:14:49;;;;;;;17.42;4.05;;;10.70;99.90;;;;;;5024906;28;20087;-77
2023/12/20 02:17:16;;;;;;;16.42;3.78;;;8.90;99.90;;;;;;5027468;28;20075;-77
2023/12/20 02:19:41;;;;;;;16.02;3.70;;;9.00;99.90;;;;;;5042760;28;20041;-78
2023/12/20 02:22:13;;;;;;;16.02;3.95;;;10.90;99.90;;;;;;5025860;28;20074;-77
2023/12/20 02:24:39;;;;;;;18.55;4.50;;;8.90;99.90;;;;;;5039177;28;20438;-78
2023/12/20 02:27:07;;;;;;;15.63;4.20;;;9.80;99.90;;;;;;5034007;28;20041;-78
2023/12/20 02:29:36;;;;;;;16.65;4.47;;;10.20;99.90;;;;;;5027922;28;20377;-80
2023/12/20 02:32:02;;;;;;;19.75;4.53;;;8.80;99.90;;;;;;5043989;28;20074;-78
2023/12/20 02:34:28;;;;;;;15.20;4.32;;;9.10;99.90;;;;;;5028856;28;20055;-78
2023/12/20 02:36:54;;;;;;;20.02;4.85;;;8.70;99.90;;;;;;5040647;28;20037;-77
2023/12/20 02:39:22;;;;;;;20.77;4.82;;;9.00;99.90;;;;;;5009689;28;20045;-76
2023/12/20 02:41:48;;;;;;;19.20;4.88;;;10.90;99.90;;;;;;5045028;28;20045;-75
2023/12/20 02:44:14;;;;;;;20.25;4.30;;;8.60;99.90;;;;;;5025715;28;20063;-78
2023/12/20 02:46:40;;;;;;;19.85;4.47;;;10.30;99.90;;;;;;5025925;28;20041;-79
2023/12/20 02:49:06;;;;;;;18.45;4.47;;;8.70;99.90;;;;;;5024878;28;20025;-78
2023/12/20 02:51:32;;;;;;;22.23;5.15;;;8.70;99.90;;;;;;5041171;28;20112;-78
2023/12/20 02:53:57;;;;;;;28.92;5.68;;;11.00;99.90;;;;;;5009220;28;20487;-79
2023/12/20 02:56:23;;;;;;;19.35;4.80;;;10.40;99.90;;;;;;5010460;28;20041;-77
2023/12/20 02:58:49;;;;;;;18.10;4.43;;;9.20;99.90;;;;;;5026306;28;20032;-78
2023/12/20 03:01:14;;;;;;;13.88;4.10;;;9.60;99.90;;;;;;5017030;28;20056;-76
2023/12/20 03:03:40;;;;;;;19.02;4.22;;;10.70;99.90;;;;;;5022514;28;20053;-80
2023/12/20 03:06:06;;;;;;;23.48;4.82;;;9.50;99.90;;;;;;4972589;28;20091;-79
2023/12/20 03:08:31;;;;;;;28.55;5.22;;;10.50;99.90;;;;;;5006723;28;20104;-77
2023/12/20 03:10:59;;;;;;;24.05;5.40;;;9.30;99.90;;;;;;5024907;28;20064;-74
2023/12/20 03:13:25;;;;;;;29.63;6.15;;;10.10;99.90;;;;;;5021161;28;20487;-77
2023/12/20 03:15:50;;;;;;;28.27;6.25;;;10.60;99.90;;;;;;5023901;28;20073;-77
2023/12/20 03:18:16;;;;;;;25.42;5.50;;;10.50;99.90;;;;;;4988073;28;21380;-74
2023/12/20 03:20:42;;;;;;;23.00;5.75;;;8.80;99.90;;;;;;4990333;28;20046;-75
2023/12/20 03:23:08;;;;;;;22.95;5.50;;;10.80;99.90;;;;;;5003951;28;20037;-77
2023/12/20 03:25:34;;;;;;;25.58;5.53;;;8.90;99.90;;;;;;5004720;28;20132;-75
2023/12/20 03:28:00;;;;;;;27.33;6.70;;;8.90;99.90;;;;;;5009580;28;20175;-75
2023/12/20 03:30:26;;;;;;;28.35;5.88;;;10.20;99.90;;;;;;5005123;28;20045;-77
2023/12/20 03:32:52;;;;;;;25.17;5.85;;;9.10;99.90;;;;;;4974405;28;20057;-77
2023/12/20 03:35:17;;;;;;;38.33;7.35;;;9.50;99.90;;;;;;4989651;28;20032;-79
2023/12/20 03:37:43;;;;;;;34.45;6.82;;;11.20;99.90;;;;;;5006205;28;20041;-80
2023/12/20 03:40:09;;;;;;;22.25;5.93;;;11.00;99.90;;;;;;5007029;28;20094;-78
2023/12/20 03:42:35;;;;;;;24.70;7.15;;;10.30;99.90;;;;;;5004610;28;20061;-80
2023/12/20 03:45:01;;;;;;;26.80;6.63;;;9.20;99.90;;;;;;5007855;28;20132;-76
2023/12/20 03:47:26;;;;;;;30.00;6.65;;;9.80;99.90;;;;;;4990826;28;20102;-78
2023/12/20 03:49:53;;;;;;;25.67;6.60;;;9.10;99.90;;;;;;5018547;28;20041;-79
2023/12/20 03:52:18;;;;;;;24.40;6.35;;;11.00;99.90;;;;;;5024870;28;20082;-76
2023/12/20 03:54:44;;;;;;;26.00;6.13;;;10.90;99.90;;;;;;4991028;28;20137;-80
2023/12/20 03:57:10;;;;;;;23.40;6.22;;;9.50;99.90;;;;;;5018918;28;20151;-80
2023/12/20 03:59:36;;;;;;;26.50;6.25;;;8.90;99.90;;;;;;5006228;28;20099;-79
2023/12/20 04:02:02;;;;;;;20.45;5.70;;;9.70;99.90;;;;;;5028135;28;20052;-76
2023/12/20 04:04:28;;;;;;;25.70;6.15;;;9.20;99.90;;;;;;5024066;28;20083;-81
2023/12/20 04:06:54;;;;;;;27.45;6.22;;;10.90;99.90;;;;;;5041703;28;20037;-74
2023/12/20 04:09:20;;;;;;;38.13;7.68;;;11.20;99.90;;;;;;5041082;28;20045;-77
2023/12/20 04:11:45;;;;;;;31.80;6.97;;;9.20;99.90;;;;;;5025911;28;20093;-76
2023/12/20 04:14:11;;;;;;;26.27;6.18;;;9.20;99.90;;;;;;5006864;28;20481;-79
2023/12/20 04:16:37;;;;;;;35.83;7.03;;;10.40;99.90;;;;;;5042183;28;20212;-80
2023/12/20 04:19:02;;;;;;;32.42;6.93;;;8.90;99.90;;;;;;5025644;28;20037;-77
2023/12/20 04:21:28;;;;;;;28.00;5.97;;;9.10;99.90;;;;;;5026220;28;20068;-76
2023/12/20 04:23:54;;;;;;;31.58;7.30;;;10.50;99.90;;;;;;5028357;28;20041;-76
2023/12/20 04:26:19;;;;;;;25.27;6.55;;;9.80;99.90;;;;;;5024876;28;20489;-80
2023/12/20 04:28:45;;;;;;;31.13;5.88;;;10.00;99.90;;;;;;5023367;28;20045;-77
2023/12/20 04:31:11;;;;;;;27.33;6.43;;;8.90;99.90;;;;;;5039088;28;20177;-76
2023/12/20 04:33:36;;;;;;;28.05;5.97;;;9.30;99.90;;;;;;5024056;28;20040;-75
2023/12/20 04:36:03;;;;;;;35.63;7.32;;;10.40;99.90;;;;;;5015615;28;20040;-75
2023/12/20 04:38:28;;;;;;;31.48;6.28;;;9.40;99.90;;;;;;5040571;28;20048;-81
2023/12/20 04:40:54;;;;;;;32.67;6.07;;;11.20;99.90;;;;;;5038973;28;20041;-77
2023/12/20 04:43:20;;;;;;;32.85;7.35;;;8.90;99.90;;;;;;5007239;28;20071;-77
2023/12/20 04:45:45;;;;;;;31.48;6.68;;;10.70;99.90;;;;;;5039573;28;20033;-80
2023/12/20 04:48:12;;;;;;;23.80;5.60;;;9.50;99.90;;;;;;5039977;28;20041;-76
2023/12/20 04:50:37;;;;;;;29.48;6.45;;;11.30;99.90;;;;;;5022299;28;20032;-79
2023/12/20 04:53:03;;;;;;;26.35;5.50;;;11.40;99.90;;;;;;5023250;28;20354;-75
2023/12/20 04:55:29;;;;;;;28.52;6.20;;;11.00;99.90;;;;;;5008672;28;20063;-79
2023/12/20 04:57:55;;;;;;;26.98;6.10;;;9.40;99.90;;;;;;5025886;28;20040;-80
2023/12/20 05:00:20;;;;;;;24.88;5.88;;;9.60;99.90;;;;;;5006187;28;20056;-77
2023/12/20 05:02:46;;;;;;;27.95;5.97;;;10.40;99.90;;;;;;5009457;28;20061;-78
2023/12/20 05:05:12;;;;;;;28.90;6.05;;;9.50;99.90;;;;;;5006390;28;20043;-79
2023/12/20 05:07:38;;;;;;;26.73;6.20;;;9.40;99.90;;;;;;5037566;28;20041;-75
2023/12/20 05:10:04;;;;;;;28.33;6.07;;;9.10;99.90;;;;;;5021421;28;20029;-79
2023/12/20 05:12:30;;;;;;;31.13;6.50;;;9.30;99.90;;;;;;5031876;28;20045;-78
2023/12/20 05:14:56;;;;;;;25.35;5.70;;;9.70;99.90;;;;;;5020849;28;20699;-79
2023/12/20 05:17:22;;;;;;;25.27;5.93;;;11.60;99.90;;;;;;5021193;28;20043;-77
2023/12/20 05:19:47;;;;;;;28.00;5.85;;;10.10;99.90;;;;;;5021140;28;20037;-75
2023/12/20 05:22:13;;;;;;;34.58;7.10;;;9.40;99.90;;;;;;4987876;28;20050;-78
2023/12/20 05:24:39;;;;;;;28.98;6.32;;;11.20;99.90;;;;;;5024582;28;20049;-78
2023/12/20 05:27:05;;;;;;;30.70;6.80;;;11.80;99.90;;;;;;5004576;28;20115;-80
2023/12/20 05:29:30;;;;;;;31.75;6.78;;;9.40;99.90;;;;;;5020914;28;20402;-78
2023/12/20 05:31:57;;;;;;;27.90;6.75;;;11.50;99.90;;;;;;4987170;28;20035;-76
2023/12/20 05:34:23;;;;;;;27.15;7.10;;;11.80;99.90;;;;;;5046245;28;20037;-76
2023/12/20 05:36:49;;;;;;;33.22;6.25;;;9.30;99.90;;;;;;5004201;28;20045;-79
2023/12/20 05:39:15;;;;;;;32.63;6.53;;;9.40;99.90;;;;;;5021430;28;20041;-78
2023/12/20 05:41:41;;;;;;;25.90;6.28;;;11.40;99.90;;;;;;4986235;28;20041;-77
2023/12/20 05:44:06;;;;;;;23.38;5.47;;;9.30;99.90;;;;;;5001872;28;20186;-76
2023/12/20 05:46:32;;;;;;;26.00;5.72;;;9.30;99.90;;;;;;5004562;28;20041;-75
2023/12/20 05:48:58;;;;;;;24.23;5.70;;;11.40;99.90;;;;;;4990100;28;20049;-80
2023/12/20 05:51:24;;;;;;;27.67;6.43;;;11.70;99.90;;;;;;5010699;28;20040;-78
2023/12/20 05:53:49;;;;;;;28.38;5.75;;;11.70;99.90;;;;;;5007770;28;20037;-75
2023/12/20 05:56:15;;;;;;;32.60;5.93;;;10.00;99.90;;;;;;5008849;28;20037;-79
2023/12/20 05:58:41;;;;;;;28.77;6.07;;;11.70;99.90;;;;;;5005651;28;20044;-75
2023/12/20 06:01:08;;;;;;;32.25;6.40;;;9.50;99.90;;;;;;5011902;28;20063;-74
2023/12/20 06:03:34;;;;;;;22.52;5.95;;;9.50;99.90;;;;;;5025322;28;20064;-75
2023/12/20 06:06:07;;;;;;;31.95;6.88;;;9.50;99.90;;;;;;5029364;28;20044;-77
2023/12/20 06:08:33;;;;;;;31.30;6.00;;;11.80;99.90;;;;;;5040739;28;20060;-78
2023/12/20 06:10:59;;;;;;;28.48;6.13;;;10.30;99.90;;;;;;5029864;28;20033;-79
2023/12/20 06:13:24;;;;;;;22.50;5.20;;;11.90;99.90;;;;;;5005595;28;20112;-78
2023/12/20 06:15:51;;;;;;;27.27;5.82;;;11.60;99.90;;;;;;5029890;28;20756;-75
2023/12/20 06:18:17;;;;;;;30.58;6.30;;;9.40;99.90;;;;;;5043279;28;20041;-81
2023/12/20 06:20:43;;;;;;;34.97;7.90;;;10.20;99.90;;;;;;5044383;28;20373;-79
2023/12/20 06:23:08;;;;;;;27.83;6.32;;;11.90;99.90;;;;;;5042663;28;20040;-75
2023/12/20 06:25:34;;;;;;;27.23;6.65;;;10.60;99.90;;;;;;5045541;28;20054;-78
2023/12/20 06:28:00;;;;;;;29.73;6.63;;;11.40;99.90;;;;;;5043171;28;20036;-77
2023/12/20 06:30:27;;;;;;;27.25;6.60;;;9.60;99.90;;;;;;5044264;28;20039;-75
2023/12/20 06:32:54;;;;;;;24.10;5.70;;;10.20;99.90;;;;;;5027909;28;20444;-78
2023/12/20 06:35:20;;;;;;;26.00;6.63;;;11.10;99.90;;;;;;5009441;28;20104;-77
2023/12/20 06:37:45;;;;;;;25.70;6.63;;;9.70;99.90;;;;;;5025260;28;20481;-76
2023/12/20 06:40:11;;;;;;;29.73;7.18;;;9.50;99.90;;;;;;5024236;28;20067;-80
2023/12/20 06:42:37;;;;;;;20.25;6.07;;;9.70;99.90;;;;;;5044094;28;20422;-73
2023/12/20 06:45:03;;;;;;;29.23;6.60;;;10.40;99.90;;;;;;5026328;28;20083;-78
2023/12/20 06:47:29;;;;;;;22.42;5.90;;;11.00;99.90;;;;;;5042919;28;20041;-79
2023/12/20 06:49:55;;;;;;;22.73;6.32;;;10.30;99.90;;;;;;5041849;28;20056;-76
2023/12/20 06:52:20;;;;;;;29.52;6.72;;;11.80;99.90;;;;;;5013506;28;20037;-79
2023/12/20 06:54:46;;;;;;;29.17;7.10;;;9.60;99.90;;;;;;5027838;28;20079;-77
2023/12/20 06:57:12;;;;;;;28.35;6.82;;;11.00;99.90;;;;;;5044842;28;20052;-76
2023/12/20 06:59:41;;;;;;;27.42;6.97;;;11.00;99.90;;;;;;5026542;28;20135;-77
2023/12/20 07:02:08;;;;;;;23.92;6.00;;;10.30;99.90;;;;;;5040906;28;20106;-76
2023/12/20 07:04:38;;;;;;;31.05;6.68;;;11.50;99.90;;;;;;5028292;28;20041;-76
2023/12/20 07:07:04;;;;;;;28.40;6.45;;;11.80;99.90;;;;;;5022993;28;20049;-80
2023/12/20 07:09:30;;;;;;;27.13;6.18;;;12.10;99.90;;;;;;5019017;28;20389;-78
2023/12/20 07:11:55;;;;;;;25.55;5.82;;;12.20;99.90;;;;;;5026392;28;20075;-80
2023/12/20 07:14:21;;;;;;;25.05;5.57;;;11.90;99.90;;;;;;5020363;28;20073;-80
2023/12/20 07:16:47;;;;;;;31.00;6.05;;;12.10;99.90;;;;;;5035683;28;20049;-78
2023/12/20 07:19:13;;;;;;;22.33;5.65;;;9.70;99.90;;;;;;5019048;28;20128;-81
2023/12/20 07:21:38;;;;;;;27.05;6.15;;;10.30;99.90;;;;;;5031916;28;20095;-83
2023/12/20 07:24:04;;;;;;;26.55;6.07;;;12.10;99.90;;;;;;5015299;28;20415;-80
2023/12/20 07:26:30;;;;;;;29.35;6.03;;;10.70;99.90;;;;;;5034621;28;20133;-79
2023/12/20 07:28:56;;;;;;;25.15;6.13;;;10.20;99.90;;;;;;4999873;28;20493;-82
2023/12/20 07:31:21;;;;;;;27.95;6.03;;;10.20;99.90;;;;;;5001619;28;20068;-75
2023/12/20 07:33:47;;;;;;;24.02;5.35;;;12.20;99.90;;;;;;5018247;28;20036;-76
2023/12/20 07:36:13;;;;;;;23.60;5.80;;;10.40;99.90;;;;;;5039038;28;20368;-78
2023/12/20 07:38:39;;;;;;;27.45;7.13;;;12.20;99.90;;;;;;5039048;28;20040;-75
2023/12/20 07:41:05;;;;;;;24.10;6.28;;;10.50;99.90;;;;;;5023080;28;20072;-77
2023/12/20 07:43:30;;;;;;;26.90;5.43;;;10.60;99.90;;;;;;5004555;28;20047;-79
2023/12/20 07:45:56;;;;;;;26.20;6.55;;;12.20;99.90;;;;;;5041336;28;20117;-78
2023/12/20 07:48:22;;;;;;;25.92;5.35;;;10.10;99.90;;;;;;5006705;28;20046;-79
2023/12/20 07:50:47;;;;;;;28.02;6.85;;;10.20;99.90;;;;;;5004255;28;20840;-80
2023/12/20 07:53:13;;;;;;;23.85;6.10;;;11.90;99.90;;;;;;5039636;28;20032;-78
2023/12/20 07:55:39;;;;;;;29.52;7.03;;;10.10;99.90;;;;;;5036265;28;20404;-75
2023/12/20 07:58:05;;;;;;;25.65;6.43;;;10.20;99.90;;;;;;5019906;28;20037;-79
2023/12/20 08:00:30;;;;;;;26.85;5.97;;;11.50;99.90;;;;;;5009153;28;20048;-78
2023/12/20 08:02:56;;;;;;;29.00;5.88;;;11.80;99.90;;;;;;5040446;28;20112;-74
2023/12/20 08:05:22;;;;;;;20.30;5.35;;;11.70;99.90;;;;;;5022391;28;20078;-78
2023/12/20 08:07:48;;;;;;;26.55;5.70;;;12.20;99.90;;;;;;5023717;28;20048;-79
2023/12/20 08:10:13;;;;;;;25.70;5.97;;;10.70;99.90;;;;;;5025478;28;20040;-81
2023/12/20 08:12:39;;;;;;;22.65;5.93;;;10.40;99.90;;;;;;5040551;28;20068;-80
2023/12/20 08:15:06;;;;;;;26.55;5.47;;;11.90;99.90;;;;;;5024723;28;20032;-76
2023/12/20 08:17:31;;;;;;;25.60;6.82;;;12.10;99.90;;;;;;5003491;28;20045;-76
2023/12/20 08:19:57;;;;;;;23.90;6.22;;;12.30;99.90;;;;;;5038563;28;20047;-79
2023/12/20 08:22:23;;;;;;;25.70;5.68;;;11.60;99.90;;;;;;5036267;28;20052;-78
2023/12/20 08:24:49;;;;;;;22.92;5.53;;;11.30;99.90;;;;;;5000117;28;20044;-78
2023/12/20 08:27:14;;;;;;;20.80;5.68;;;12.00;99.90;;;;;;5033265;28;20531;-79
2023/12/20 08:29:40;;;;;;;27.10;5.50;;;11.50;99.90;;;;;;5032873;28;20036;-81
2023/12/20 08:32:06;;;;;;;22.42;6.18;;;11.70;99.90;;;;;;5033368;28;20358;-76
2023/12/20 08:34:32;;;;;;;28.88;6.50;;;11.60;99.90;;;;;;4984163;28;20134;-78
2023/12/20 08:36:57;;;;;;;21.55;5.57;;;10.40;99.90;;;;;;4999297;28;20083;-79
2023/12/20 08:39:23;;;;;;;28.65;6.13;;;12.00;99.90;;;;;;5033537;28;20116;-78
2023/12/20 08:41:49;;;;;;;9.82;2.58;;;10.70;99.90;;;;;;5014380;28;20045;-81
2023/12/20 08:44:14;;;;;;;8.50;1.75;;;10.50;99.90;;;;;;5000379;28;20064;-83
2023/12/20 08:46:40;;;;;;;6.88;1.80;;;8.00;99.90;;;;;;5016757;28;20064;-77
2023/12/20 08:49:07;;;;;;;8.30;1.90;;;9.70;99.90;;;;;;5033645;28;20108;-76
2023/12/20 08:51:33;;;;;;;8.10;2.53;;;9.50;99.90;;;;;;5017567;28;20178;-77
2023/12/20 08:53:59;;;;;;;12.63;2.92;;;9.90;99.90;;;;;;5001189;28;20034;-74
2023/12/20 08:56:24;;;;;;;8.63;2.25;;;10.00;99.90;;;;;;5015373;28;20090;-75
2023/12/20 08:58:50;;;;;;;8.95;2.50;;;8.10;99.90;;;;;;5017989;28;20041;-78
2023/12/20 09:01:16;;;;;;;13.25;2.75;;;9.10;99.90;;;;;;5028514;28;20036;-79
2023/12/20 09:03:42;;;;;;;11.85;2.50;;;9.10;99.90;;;;;;5040518;28;20045;-78
2023/12/20 09:06:07;;;;;;;13.15;2.45;;;10.00;99.90;;;;;;5037862;28;20044;-79
2023/12/20 09:08:34;;;;;;;10.23;2.53;;;9.00;99.90;;;;;;5017013;28;20052;-79
2023/12/20 09:11:00;;;;;;;12.38;2.75;;;8.50;99.90;;;;;;5016637;28;20059;-81
2023/12/20 09:13:28;;;;;;;13.55;2.30;;;8.70;99.90;;;;;;5038889;28;20094;-79
2023/12/20 09:15:55;;;;;;;9.30;2.42;;;10.00;99.90;;;;;;5001815;28;20434;-79
2023/12/20 09:18:21;;;;;;;12.15;2.45;;;9.90;99.90;;;;;;5033642;28;20112;-81
2023/12/20 09:20:46;;;;;;;9.40;2.47;;;8.90;99.90;;;;;;5000153;28;20481;-78
2023/12/20 09:23:12;;;;;;;11.48;2.38;;;9.90;99.90;;;;;;5034970;28;20044;-77
2023/12/20 09:25:38;;;;;;;9.13;2.20;;;10.00;99.90;;;;;;5021081;28;20044;-78
2023/12/20 09:28:04;;;;;;;15.18;2.90;;;9.10;99.90;;;;;;5037337;28;20090;-77
2023/12/20 09:30:29;;;;;;;11.20;2.97;;;8.70;99.90;;;;;;4994593;28;20043;-79
2023/12/20 09:32:55;;;;;;;16.25;3.05;;;10.00;99.90;;;;;;5039872;28;20040;-77
2023/12/20 09:35:21;;;;;;;20.42;3.05;;;9.00;99.90;;;;;;5036490;28;20071;-77
2023/12/20 09:37:47;;;;;;;12.68;3.00;;;10.20;99.90;;;;;;5037123;28;20037;-79
2023/12/20 09:40:13;;;;;;;14.25;2.55;;;8.90;99.90;;;;;;5020422;28;20047;-77
2023/12/20 09:42:51;;;;;;;15.85;2.85;;;10.00;99.90;;;;;;5019303;28;20481;-78
2023/12/20 09:45:21;;;;;;;10.18;2.55;;;10.10;99.90;;;;;;5038088;28;20045;-80
2023/12/20 09:47:48;;;;;;;8.43;2.00;;;9.00;99.90;;;;;;5004806;28;20107;-75
2023/12/20 09:50:15;;;;;;;9.93;2.17;;;8.80;99.90;;;;;;5005243;28;20037;-77
2023/12/20 09:52:43;;;;;;;11.65;1.88;;;10.10;99.90;;;;;;5016677;28;20073;-80
2023/12/20 09:55:09;;;;;;;10.38;2.00;;;10.20;99.90;;;;;;5044627;28;20032;-78
2023/12/20 09:57:35;;;;;;;11.25;2.00;;;10.30;99.90;;;;;;4996943;28;20069;-76
2023/12/20 10:00:01;;;;;;;9.82;2.47;;;9.20;99.90;;;;;;5044321;28;20075;-77
2023/12/20 10:02:27;;;;;;;10.32;2.50;;;8.60;99.90;;;;;;5025788;28;20048;-79
2023/12/20 10:04:54;;;;;;;8.52;2.20;;;10.20;99.90;;;;;;5026053;28;20052;-74
2023/12/20 10:07:20;;;;;;;8.48;2.38;;;8.70;99.90;;;;;;5043397;28;20036;-76
2023/12/20 10:09:47;;;;;;;9.02;2.35;;;9.00;99.90;;;;;;5035796;28;20116;-77
2023/12/20 10:12:13;;;;;;;11.88;2.50;;;8.90;99.90;;;;;;5019496;28;20083;-76
2023/12/20 10:14:39;;;;;;;10.45;2.65;;;10.60;99.90;;;;;;5042084;28;20040;-76
2023/12/20 10:17:06;;;;;;;12.68;2.63;;;10.60;99.90;;;;;;5034594;28;20056;-76
2023/12/20 10:19:33;;;;;;;9.63;2.55;;;9.20;99.90;;;;;;5038188;28;20072;-77
2023/12/20 10:22:04;;;;;;;13.50;2.42;;;10.10;99.90;;;;;;5018834;28;20417;-79
2023/12/20 10:24:30;;;;;;;15.55;2.95;;;10.10;99.90;;;;;;5035556;28;20045;-79
2023/12/20 10:27:04;;;;;;;17.65;2.97;;;10.00;99.90;;;;;;5035344;28;20064;-78
2023/12/20 10:29:38;;;;;;;11.80;2.47;;;9.80;99.90;;;;;;5035347;28;20550;-78
2023/12/20 10:32:24;;;;;;;12.27;3.10;;;10.30;99.90;;;;;;4986637;28;20115;-77
2023/12/20 10:34:54;;;;;;;11.25;2.80;;;11.20;99.90;;;;;;5016877;28;20129;-76
2023/12/20 10:37:21;;;;;;;16.63;2.75;;;10.80;99.90;;;;;;5035876;28;20052;-79
2023/12/20 10:39:51;;;;;;;12.63;3.00;;;11.30;99.90;;;;;;5037985;28;20090;-78
2023/12/20 10:42:20;;;;;;;9.27;2.30;;;12.30;99.90;;;;;;5024163;28;20040;-77
2023/12/20 10:44:47;;;;;;;7.72;2.50;;;12.80;99.90;;;;;;5021422;28;20119;-77
2023/12/20 10:47:13;;;;;;;10.75;2.25;;;12.80;99.90;;;;;;5024024;28;20041;-75
2023/12/20 10:49:40;;;;;;;13.48;2.40;;;11.60;99.90;;;;;;5020640;28;20037;-79
2023/12/20 10:52:06;;;;;;;9.20;2.70;;;12.80;99.90;;;;;;5018881;28;20036;-79
2023/12/20 10:54:32;;;;;;;8.90;2.67;;;12.10;99.90;;;;;;5018568;28;20079;-79
2023/12/20 10:56:59;;;;;;;13.00;2.90;;;11.60;99.90;;;;;;5035526;28;20044;-77
2023/12/20 10:59:29;;;;;;;13.18;2.65;;;11.60;99.90;;;;;;5035952;28;20041;-77
2023/12/20 11:01:57;;;;;;;12.38;2.88;;;12.30;99.90;;;;;;5022101;28;20055;-76
2023/12/20 11:04:38;;;;;;;18.05;3.03;;;11.90;99.90;;;;;;5029226;28;20118;-79
2023/12/20 11:07:32;;;;;;;17.13;4.22;;;11.20;99.90;;;;;;5016891;28;20051;-78
2023/12/20 11:10:02;;;;;;;13.80;3.20;;;12.60;99.90;;;;;;5015961;28;20046;-80
2023/12/20 11:12:42;;;;;;;12.88;3.08;;;12.10;99.90;;;;;;5029055;28;20041;-77
2023/12/20 11:15:08;;;;;;;11.88;3.05;;;11.90;99.90;;;;;;5021931;28;20076;-77
2023/12/20 11:17:34;;;;;;;16.23;2.92;;;11.30;99.90;;;;;;4998742;28;20076;-78
2023/12/20 11:20:01;;;;;;;17.05;3.63;;;10.80;99.90;;;;;;4982334;28;20110;-81
2023/12/20 11:22:34;;;;;;;16.38;3.53;;;11.20;99.90;;;;;;5010354;28;20037;-84
2023/12/20 11:25:11;;;;;;;18.30;3.30;;;10.30;99.90;;;;;;5003330;28;20072;-80
2023/12/20 11:27:45;;;;;;;16.80;3.47;;;10.80;99.90;;;;;;5022433;28;20545;-76
2023/12/20 11:30:11;;;;;;;17.15;3.58;;;10.70;99.90;;;;;;5032210;28;20079;-78
2023/12/20 11:32:37;;;;;;;16.42;3.85;;;11.30;99.90;;;;;;5011014;28;20052;-76
2023/12/20 11:35:10;;;;;;;14.90;3.90;;;10.00;99.90;;;;;;5021591;28;20687;-79
2023/12/20 11:37:37;;;;;;;19.90;3.80;;;10.40;99.90;;;;;;5021476;28;20424;-81
2023/12/20 11:40:09;;;;;;;14.68;4.15;;;11.10;99.90;;;;;;5008956;28;20037;-78
2023/12/20 11:42:51;;;;;;;14.23;3.72;;;10.70;99.90;;;;;;5033777;28;20049;-76
2023/12/20 11:45:22;;;;;;;17.80;4.25;;;10.70;99.90;;;;;;5007381;28;20072;-78
2023/12/20 11:47:51;;;;;;;14.85;3.55;;;10.80;99.90;;;;;;5025942;28;20052;-79
2023/12/20 11:50:18;;;;;;;18.67;4.25;;;10.70;99.90;;;;;;5021384;28;20037;-79
2023/12/20 11:52:44;;;;;;;14.70;3.85;;;11.80;99.90;;;;;;5007981;28;20424;-81
2023/12/20 11:55:09;;;;;;;17.83;4.28;;;10.40;99.90;;;;;;5009521;28;20098;-79
2023/12/20 11:57:36;;;;;;;18.40;4.20;;;11.60;99.90;;;;;;5022144;28;20401;-78
2023/12/20 12:00:06;;;;;;;15.50;4.00;;;10.50;99.90;;;;;;5018512;28;20041;-77
2023/12/20 12:02:32;;;;;;;14.73;3.63;;;11.50;99.90;;;;;;5008941;28;20119;-79
2023/12/20 12:04:59;;;;;;;17.80;4.20;;;11.10;99.90;;;;;;5039178;28;20111;-77
2023/12/20 12:07:25;;;;;;;16.63;4.03;;;10.30;99.90;;;;;;5038961;28;20131;-78
2023/12/20 12:09:51;;;;;;;11.95;3.50;;;11.40;99.90;;;;;;5025830;28;20116;-78
2023/12/20 12:12:19;;;;;;;15.27;4.22;;;10.30;99.90;;;;;;5007410;28;20040;-78
2023/12/20 12:14:45;;;;;;;16.48;4.03;;;11.10;99.90;;;;;;5041349;28;20562;-78
2023/12/20 12:17:15;;;;;;;17.20;3.88;;;11.20;99.90;;;;;;5025904;28;20071;-77
2023/12/20 12:19:42;;;;;;;15.55;4.05;;;10.30;99.90;;;;;;5039348;28;20036;-77
2023/12/20 12:22:12;;;;;;;23.92;4.30;;;10.60;99.90;;;;;;5022992;28;20040;-79
2023/12/20 12:24:41;;;;;;;15.55;3.55;;;9.90;99.90;;;;;;5025834;28;20051;-76
2023/12/20 12:27:07;;;;;;;15.15;3.70;;;10.50;99.90;;;;;;5006161;28;20072;-77
2023/12/20 12:29:36;;;;;;;17.75;3.10;;;10.10;99.90;;;;;;5022580;28;20040;-77
2023/12/20 12:32:06;;;;;;;16.48;3.97;;;9.90;99.90;;;;;;5004588;28;20032;-77
2023/12/20 12:34:33;;;;;;;15.00;3.55;;;10.80;99.90;;;;;;5024935;28;20040;-80
2023/12/20 12:36:59;;;;;;;16.77;4.20;;;10.50;99.90;;;;;;5023497;28;20235;-79